createdAt,value
2022-08-29T00:02:07.729Z,100056.56
2022-08-29T00:04:36.719Z,100056.00
2022-08-29T00:07:06.561Z,100065.66
2022-08-29T00:09:34.825Z,100069.94
2022-08-29T00:12:03.022Z,100067.38
2022-08-29T00:14:31.419Z,100067.91
2022-08-29T00:17:01.170Z,100058.59
2022-08-29T00:19:29.404Z,100065.06
2022-08-29T00:21:57.513Z,100064.44
2022-08-29T00:24:27.469Z,100067.13
2022-08-29T00:26:55.757Z,100072.78
2022-08-29T00:29:23.862Z,100072.19
2022-08-29T00:31:51.999Z,100069.31
2022-08-29T00:34:20.432Z,100069.19
2022-08-29T00:36:49.072Z,100071.50
2022-08-29T00:39:17.559Z,100072.22
2022-08-29T00:41:52.727Z,100073.63
2022-08-29T00:44:20.959Z,100073.00
2022-08-29T00:46:53.649Z,100070.94
2022-08-29T00:49:31.270Z,100071.91
2022-08-29T00:52:01.619Z,100077.94
2022-08-29T00:54:31.096Z,100085.25
2022-08-29T00:57:01.317Z,100086.88
2022-08-29T00:59:34.024Z,100090.50
2022-08-29T01:02:03.406Z,100090.69
2022-08-29T01:04:31.977Z,100088.59
2022-08-29T01:07:00.880Z,100096.78
2022-08-29T01:09:30.667Z,100084.88
2022-08-29T01:12:17.587Z,100089.38
2022-08-29T01:14:50.162Z,100085.78
2022-08-29T01:17:22.163Z,100086.75
2022-08-29T01:19:58.339Z,100096.19
2022-08-29T01:22:40.961Z,100088.25
2022-08-29T01:25:12.968Z,100091.94
2022-08-29T01:27:45.712Z,100094.94
2022-08-29T01:30:15.513Z,100095.34
2022-08-29T01:32:44.158Z,100099.38
2022-08-29T01:35:12.505Z,100102.75
2022-08-29T01:37:44.576Z,100099.94
2022-08-29T01:40:14.822Z,100102.88
2022-08-29T01:42:44.069Z,100095.94
2022-08-29T01:45:12.704Z,100090.06
2022-08-29T01:47:41.307Z,100083.84
2022-08-29T01:50:12.821Z,100080.44
2022-08-29T01:52:42.141Z,100077.41
2022-08-29T01:55:10.612Z,100085.09
2022-08-29T01:57:41.739Z,100092.22
2022-08-29T02:00:11.854Z,100088.78
2022-08-29T02:02:41.223Z,100094.81
2022-08-29T02:05:10.137Z,100088.81
2022-08-29T02:07:38.401Z,100095.69
2022-08-29T02:10:07.965Z,100100.31
2022-08-29T02:12:36.933Z,100089.31
2022-08-29T02:15:08.325Z,100092.25
2022-08-29T02:17:36.493Z,100098.59
2022-08-29T02:20:08.156Z,100092.25
2022-08-29T02:22:37.251Z,100091.91
2022-08-29T02:25:28.270Z,100083.13
2022-08-29T02:27:58.060Z,100077.66
2022-08-29T02:30:27.647Z,100074.38
2022-08-29T02:32:55.925Z,100064.94
2022-08-29T02:35:24.535Z,100070.19
2022-08-29T02:37:53.224Z,100065.91
2022-08-29T02:40:24.659Z,100059.09
2022-08-29T02:42:59.913Z,100053.47
2022-08-29T02:45:29.877Z,100062.50
2022-08-29T02:47:58.474Z,100070.31
2022-08-29T02:50:27.017Z,100069.44
2022-08-29T02:52:55.165Z,100071.88
2022-08-29T02:55:25.197Z,100068.50
2022-08-29T02:57:54.485Z,100073.25
2022-08-29T03:00:25.571Z,100079.81
2022-08-29T03:02:56.155Z,100075.16
2022-08-29T03:05:27.529Z,100077.09
2022-08-29T03:07:56.153Z,100077.72
2022-08-29T03:10:24.981Z,100082.84
2022-08-29T03:12:53.150Z,100080.28
2022-08-29T03:15:22.398Z,100087.22
2022-08-29T03:17:51.472Z,100092.38
2022-08-29T03:20:23.064Z,100098.66
2022-08-29T03:22:51.964Z,100095.75
2022-08-29T03:25:20.978Z,100093.63
2022-08-29T03:27:49.227Z,100103.41
2022-08-29T03:30:18.813Z,100104.38
2022-08-29T03:32:48.396Z,100105.84
2022-08-29T03:35:18.153Z,100106.22
2022-08-29T03:37:48.075Z,100109.88
2022-08-29T03:40:19.183Z,100117.69
2022-08-29T03:42:47.947Z,100116.47
2022-08-29T03:45:18.642Z,100115.25
2022-08-29T03:47:47.490Z,100116.47
2022-08-29T03:50:17.835Z,100126.25
2022-08-29T03:52:47.762Z,100125.75
2022-08-29T03:55:16.690Z,100127.72
2022-08-29T03:57:45.664Z,100136.25
2022-08-29T04:00:17.254Z,100145.28
2022-08-29T04:02:47.518Z,100144.78
2022-08-29T04:05:18.208Z,100134.41
2022-08-29T04:07:50.749Z,100145.28
2022-08-29T04:10:22.459Z,100146.72
2022-08-29T04:12:54.492Z,100154.16
2022-08-29T04:15:24.091Z,100141.13
2022-08-29T04:17:54.495Z,100144.25
2022-08-29T04:20:25.443Z,100144.84
2022-08-29T04:22:56.569Z,100152.50
2022-08-29T04:25:26.514Z,100158.91
2022-08-29T04:27:56.365Z,100156.16
2022-08-29T04:30:28.148Z,100157.78
2022-08-29T04:32:56.581Z,100164.97
2022-08-29T04:35:24.678Z,100158.25
2022-08-29T04:37:53.001Z,100169.84
2022-08-29T04:40:24.116Z,100170.31
2022-08-29T04:42:52.438Z,100166.25
2022-08-29T04:45:23.166Z,100169.00
2022-08-29T04:47:51.277Z,100162.53
2022-08-29T04:50:22.050Z,100168.50
2022-08-29T04:52:52.436Z,100169.88
2022-08-29T04:55:25.642Z,100168.78
2022-08-29T04:57:57.086Z,100171.47
2022-08-29T05:00:28.693Z,100171.72
2022-08-29T05:02:58.584Z,100174.03
2022-08-29T05:05:27.939Z,100163.91
2022-08-29T05:07:56.061Z,100165.88
2022-08-29T05:10:26.378Z,100173.34
2022-08-29T05:12:54.516Z,100172.97
2022-08-29T05:15:22.624Z,100170.16
2022-08-29T05:17:50.723Z,100174.81
2022-08-29T05:20:19.079Z,100176.28
2022-08-29T05:22:47.419Z,100173.59
2022-08-29T05:25:18.226Z,100182.16
2022-08-29T05:27:48.298Z,100183.72
2022-08-29T05:30:34.789Z,100181.19
2022-08-29T05:33:03.652Z,100187.28
2022-08-29T05:35:31.807Z,100182.06
2022-08-29T05:37:59.971Z,100184.75
2022-08-29T05:40:28.665Z,100194.50
2022-08-29T05:42:58.213Z,100189.63
2022-08-29T05:45:26.330Z,100181.75
2022-08-29T05:47:55.989Z,100195.88
2022-08-29T05:50:24.671Z,100191.22
2022-08-29T05:52:52.787Z,100186.47
2022-08-29T05:55:21.271Z,100188.91
2022-08-29T05:57:51.782Z,100197.19
2022-08-29T06:00:22.038Z,100192.91
2022-08-29T06:02:51.023Z,100187.50
2022-08-29T06:05:19.456Z,100189.69
2022-08-29T06:07:48.438Z,100190.34
2022-08-29T06:10:16.559Z,100192.06
2022-08-29T06:12:44.961Z,100191.66
2022-08-29T06:15:13.181Z,100194.81
2022-08-29T06:17:42.799Z,100202.41
2022-08-29T06:20:12.094Z,100198.88
2022-08-29T06:22:40.745Z,100201.56
2022-08-29T06:25:28.304Z,100208.75
2022-08-29T06:27:58.352Z,100217.88
2022-08-29T06:30:26.628Z,100214.66
2022-08-29T06:32:56.199Z,100218.59
2022-08-29T06:35:24.381Z,100218.53
2022-08-29T06:37:53.395Z,100220.28
2022-08-29T06:40:21.627Z,100226.00
2022-08-29T06:42:49.832Z,100220.34
2022-08-29T06:45:18.333Z,100227.25
2022-08-29T06:47:47.542Z,100228.88
2022-08-29T06:50:17.728Z,100231.19
2022-08-29T06:52:46.967Z,100235.59
2022-08-29T06:55:15.810Z,100239.41
2022-08-29T06:57:45.989Z,100240.28
2022-08-29T07:00:22.339Z,100237.44
2022-08-29T07:02:52.394Z,100242.97
2022-08-29T07:05:23.255Z,100239.72
2022-08-29T07:07:52.546Z,100235.16
2022-08-29T07:10:22.838Z,100234.88
2022-08-29T07:12:52.073Z,100242.44
2022-08-29T07:15:21.326Z,100246.19
2022-08-29T07:17:49.986Z,100246.09
2022-08-29T07:20:18.802Z,100236.44
2022-08-29T07:22:51.488Z,100244.84
2022-08-29T07:25:21.779Z,100247.19
2022-08-29T07:27:52.037Z,100245.19
2022-08-29T07:30:22.142Z,100247.91
2022-08-29T07:32:50.308Z,100245.69
2022-08-29T07:35:29.570Z,100247.97
2022-08-29T07:38:01.234Z,100244.84
2022-08-29T07:40:30.070Z,100241.72
2022-08-29T07:42:58.586Z,100248.97
2022-08-29T07:45:26.827Z,100253.50
2022-08-29T07:47:54.999Z,100249.09
2022-08-29T07:50:23.339Z,100250.56
2022-08-29T07:52:52.590Z,100248.56
2022-08-29T07:55:23.103Z,100250.97
2022-08-29T07:57:52.703Z,100255.38
2022-08-29T08:00:22.012Z,100254.53
2022-08-29T08:02:50.259Z,100256.19
2022-08-29T08:05:18.827Z,100256.34
2022-08-29T08:07:47.256Z,100259.31
2022-08-29T08:10:17.204Z,100260.31
2022-08-29T08:12:47.649Z,100264.03
2022-08-29T08:15:16.825Z,100260.34
2022-08-29T08:17:44.955Z,100260.03
2022-08-29T08:20:14.063Z,100267.56
2022-08-29T08:22:42.624Z,100256.88
2022-08-29T08:25:11.154Z,100255.28
2022-08-29T08:27:43.474Z,100258.97
2022-08-29T08:30:14.691Z,100252.84
2022-08-29T08:32:46.898Z,100254.53
2022-08-29T08:35:16.783Z,100256.06
2022-08-29T08:37:45.389Z,100256.16
2022-08-29T08:40:23.206Z,100250.91
2022-08-29T08:42:51.822Z,100265.47
2022-08-29T08:45:26.808Z,100265.38
2022-08-29T08:48:03.820Z,100258.44
2022-08-29T08:50:41.886Z,100252.09
2022-08-29T08:53:19.752Z,100260.72
2022-08-29T08:55:51.525Z,100266.06
2022-08-29T08:58:31.104Z,100261.00
2022-08-29T09:01:03.629Z,100255.00
2022-08-29T09:04:07.359Z,100257.63
2022-08-29T09:06:52.020Z,100247.19
2022-08-29T09:09:30.414Z,100252.50
2022-08-29T09:12:10.237Z,100252.22
2022-08-29T09:14:54.933Z,100248.00
2022-08-29T09:17:30.767Z,100251.06
2022-08-29T09:20:09.137Z,100256.00
2022-08-29T09:22:40.685Z,100249.03
2022-08-29T09:25:11.075Z,100253.19
2022-08-29T09:27:41.360Z,100248.25
2022-08-29T09:30:12.452Z,100256.88
2022-08-29T09:32:58.207Z,100254.00
2022-08-29T09:35:29.874Z,100257.31
2022-08-29T09:38:01.554Z,100263.69
2022-08-29T09:40:49.894Z,100257.47
2022-08-29T09:43:25.439Z,100252.44
2022-08-29T09:46:09.134Z,100261.63
2022-08-29T09:48:40.986Z,100261.28
2022-08-29T09:51:15.918Z,100255.72
2022-08-29T09:53:44.814Z,100257.25
2022-08-29T09:56:19.894Z,100256.63
2022-08-29T09:59:00.023Z,100256.47
2022-08-29T10:01:29.783Z,100259.13
2022-08-29T10:04:01.518Z,100264.25
2022-08-29T10:06:32.608Z,100265.22
2022-08-29T10:09:05.629Z,100260.97
2022-08-29T10:11:44.057Z,100258.56
2022-08-29T10:14:18.018Z,100269.63
2022-08-29T10:16:53.859Z,100266.25
2022-08-29T10:19:33.177Z,100272.25
2022-08-29T10:22:07.102Z,100265.50
2022-08-29T10:24:55.095Z,100267.44
2022-08-29T10:27:40.671Z,100268.00
2022-08-29T10:30:12.122Z,100269.81
2022-08-29T10:33:17.893Z,100273.47
2022-08-29T10:35:55.743Z,100265.84
2022-08-29T10:38:39.089Z,100264.81
2022-08-29T10:41:17.209Z,100262.59
2022-08-29T10:43:51.406Z,100260.34
2022-08-29T10:46:42.123Z,100267.81
2022-08-29T10:49:21.883Z,100271.31
2022-08-29T10:52:01.099Z,100259.91
2022-08-29T10:54:38.698Z,100258.84
2022-08-29T10:57:09.407Z,100253.59
2022-08-29T10:59:50.415Z,100251.66
2022-08-29T11:02:37.234Z,100254.56
2022-08-29T11:05:12.407Z,100253.97
2022-08-29T11:07:48.105Z,100248.13
2022-08-29T11:10:20.509Z,100252.53
2022-08-29T11:12:55.246Z,100243.44
2022-08-29T11:15:29.531Z,100248.59
2022-08-29T11:18:10.216Z,100258.06
2022-08-29T11:20:44.655Z,100245.22
2022-08-29T11:23:23.882Z,100243.34
2022-08-29T11:25:52.355Z,100244.09
2022-08-29T11:28:38.583Z,100234.84
2022-08-29T11:31:13.259Z,100239.53
2022-08-29T11:33:47.852Z,100231.56
2022-08-29T11:36:41.297Z,100228.69
2022-08-29T11:39:57.541Z,100234.25
2022-08-29T11:45:35.471Z,100233.25
2022-08-29T11:48:20.818Z,100231.06
2022-08-29T11:50:49.670Z,100242.75
2022-08-29T11:53:33.788Z,100232.25
2022-08-29T11:56:21.921Z,100233.53
2022-08-29T11:58:53.827Z,100241.69
2022-08-29T12:02:00.745Z,100231.22
2022-08-29T12:04:52.293Z,100233.75
2022-08-29T12:07:21.593Z,100237.78
2022-08-29T12:09:53.096Z,100226.84
2022-08-29T12:12:47.380Z,100234.56
2022-08-29T12:15:59.944Z,100231.34
2022-08-29T12:18:40.321Z,100221.84
2022-08-29T12:21:47.247Z,100218.34
2022-08-29T12:24:31.464Z,100214.38
2022-08-29T12:27:00.303Z,100215.50
2022-08-29T12:29:33.345Z,100211.28
2022-08-29T12:32:40.122Z,100198.75
2022-08-29T12:35:32.948Z,100203.81
2022-08-29T12:38:18.176Z,100197.25
2022-08-29T12:41:05.890Z,100197.78
2022-08-29T12:43:41.381Z,100196.75
2022-08-29T12:46:18.455Z,100193.69
2022-08-29T12:48:57.481Z,100190.09
2022-08-29T12:51:35.985Z,100186.19
2022-08-29T12:54:04.993Z,100180.13
2022-08-29T12:56:33.836Z,100177.03
2022-08-29T12:59:04.912Z,100178.59
2022-08-29T13:01:37.913Z,100175.47
2022-08-29T13:04:13.145Z,100176.34
2022-08-29T13:06:54.995Z,100165.78
2022-08-29T13:09:27.655Z,100172.00
2022-08-29T13:12:11.928Z,100164.16
2022-08-29T13:14:52.948Z,100171.31
2022-08-29T13:17:22.803Z,100169.22
2022-08-29T13:20:28.245Z,100168.53
2022-08-29T13:23:09.523Z,100170.91
2022-08-29T13:25:45.270Z,100168.19
2022-08-29T13:28:21.020Z,100172.03
2022-08-29T13:31:22.491Z,100156.25
2022-08-29T13:34:17.804Z,100157.38
2022-08-29T13:36:59.396Z,100160.22
2022-08-29T13:39:41.219Z,100159.50
2022-08-29T13:42:32.896Z,100153.19
2022-08-29T13:45:08.461Z,100162.66
2022-08-29T13:47:46.621Z,100155.91
2022-08-29T13:50:17.115Z,100153.78
2022-08-29T13:52:45.476Z,100154.31
2022-08-29T13:55:15.038Z,100162.91
2022-08-29T13:57:47.780Z,100151.16
2022-08-29T14:00:17.428Z,100153.22
2022-08-29T14:02:53.673Z,100155.41
2022-08-29T14:05:22.081Z,100161.19
2022-08-29T14:07:50.607Z,100149.47
2022-08-29T14:10:20.679Z,100157.81
2022-08-29T14:12:48.814Z,100155.25
2022-08-29T14:15:18.634Z,100155.44
2022-08-29T14:17:48.862Z,100148.47
2022-08-29T14:20:21.795Z,100149.34
2022-08-29T14:22:50.496Z,100153.94
2022-08-29T14:25:21.057Z,100150.38
2022-08-29T14:27:49.778Z,100156.88
2022-08-29T14:30:21.322Z,100150.09
2022-08-29T14:32:49.800Z,100146.28
2022-08-29T14:35:26.842Z,100149.59
2022-08-29T14:38:01.320Z,100145.03
2022-08-29T14:40:32.348Z,100143.09
2022-08-29T14:43:02.201Z,100149.84
2022-08-29T14:45:31.618Z,100152.75
2022-08-29T14:47:59.815Z,100153.88
2022-08-29T14:50:28.845Z,100145.59
2022-08-29T14:52:57.057Z,100152.00
2022-08-29T14:55:25.397Z,100139.50
2022-08-29T14:57:55.000Z,100145.59
2022-08-29T15:00:26.261Z,100140.78
2022-08-29T15:02:54.954Z,100147.34
2022-08-29T15:05:23.661Z,100143.09
2022-08-29T15:07:52.458Z,100140.22
2022-08-29T15:10:24.357Z,100146.75
2022-08-29T15:12:54.421Z,100148.53
2022-08-29T15:15:29.197Z,100149.72
2022-08-29T15:17:57.910Z,100140.44
2022-08-29T15:20:36.809Z,100144.59
2022-08-29T15:23:06.525Z,100147.97
2022-08-29T15:25:35.271Z,100158.03
2022-08-29T15:28:05.745Z,100152.06
2022-08-29T15:30:34.453Z,100151.28
2022-08-29T15:33:02.744Z,100143.41
2022-08-29T15:35:31.206Z,100144.91
2022-08-29T15:37:59.388Z,100147.19
2022-08-29T15:40:27.956Z,100147.63
2022-08-29T15:42:56.264Z,100151.34
2022-08-29T15:45:25.803Z,100158.72
2022-08-29T15:47:54.471Z,100169.59
2022-08-29T15:50:24.367Z,100169.88
2022-08-29T15:52:53.053Z,100179.91
2022-08-29T15:55:21.606Z,100176.69
2022-08-29T15:57:52.511Z,100163.63
2022-08-29T16:00:29.610Z,100164.97
2022-08-29T16:03:06.663Z,100172.63
2022-08-29T16:05:38.248Z,100171.56
2022-08-29T16:08:07.133Z,100162.72
2022-08-29T16:10:39.183Z,100160.22
2022-08-29T16:13:07.696Z,100161.19
2022-08-29T16:15:36.482Z,100167.22
2022-08-29T16:18:06.754Z,100172.31
2022-08-29T16:20:36.342Z,100171.31
2022-08-29T16:23:06.332Z,100174.88
2022-08-29T16:25:35.064Z,100178.59
2022-08-29T16:28:06.079Z,100172.03
2022-08-29T16:30:34.952Z,100175.59
2022-08-29T16:33:08.011Z,100179.16
2022-08-29T16:35:36.266Z,100182.84
2022-08-29T16:38:04.648Z,100185.28
2022-08-29T16:40:35.433Z,100188.16
2022-08-29T16:43:05.498Z,100188.75
2022-08-29T16:45:34.418Z,100194.09
2022-08-29T16:48:03.118Z,100192.91
2022-08-29T16:50:34.640Z,100196.00
2022-08-29T16:53:02.939Z,100198.41
2022-08-29T16:55:31.758Z,100206.94
2022-08-29T16:58:17.806Z,100205.06
2022-08-29T17:00:46.392Z,100205.31
2022-08-29T17:03:19.382Z,100206.78
2022-08-29T17:05:50.113Z,100205.56
2022-08-29T17:08:17.405Z,100210.72
2022-08-29T17:10:45.071Z,100212.75
2022-08-29T17:13:12.557Z,100220.25
2022-08-29T17:15:39.862Z,100214.91
2022-08-29T17:18:08.025Z,100218.63
2022-08-29T17:20:37.679Z,100214.78
2022-08-29T17:23:10.286Z,100224.50
2022-08-29T17:25:39.298Z,100221.81
2022-08-29T17:28:27.716Z,100226.84
2022-08-29T17:30:57.497Z,100223.53
2022-08-29T17:33:26.048Z,100225.41
2022-08-29T17:35:54.581Z,100226.72
2022-08-29T17:38:24.585Z,100238.09
2022-08-29T17:40:57.124Z,100236.91
2022-08-29T17:43:27.624Z,100240.63
2022-08-29T17:45:57.571Z,100242.13
2022-08-29T17:48:26.226Z,100251.44
2022-08-29T17:50:54.414Z,100251.53
2022-08-29T17:53:25.096Z,100246.75
2022-08-29T17:55:53.909Z,100258.28
2022-08-29T17:58:23.375Z,100269.81
2022-08-29T18:00:52.388Z,100265.13
2022-08-29T18:03:20.751Z,100268.84
2022-08-29T18:05:49.033Z,100274.41
2022-08-29T18:08:17.546Z,100281.50
2022-08-29T18:10:47.305Z,100290.19
2022-08-29T18:13:19.717Z,100290.50
2022-08-29T18:15:50.701Z,100289.63
2022-08-29T18:18:21.424Z,100294.19
2022-08-29T18:20:49.617Z,100302.28
2022-08-29T18:23:17.858Z,100293.03
2022-08-29T18:25:47.878Z,100298.16
2022-08-29T18:28:16.221Z,100297.00
2022-08-29T18:30:44.557Z,100295.47
2022-08-29T18:33:13.090Z,100301.16
2022-08-29T18:35:41.278Z,100299.00
2022-08-29T18:38:10.278Z,100302.84
2022-08-29T18:40:39.917Z,100298.88
2022-08-29T18:43:09.799Z,100297.28
2022-08-29T18:45:38.390Z,100294.16
2022-08-29T18:48:06.944Z,100297.59
2022-08-29T18:50:35.236Z,100298.56
2022-08-29T18:53:08.855Z,100301.00
2022-08-29T18:55:36.939Z,100310.94
2022-08-29T18:58:06.183Z,100307.25
2022-08-29T19:00:36.330Z,100312.53
2022-08-29T19:03:05.472Z,100307.69
2022-08-29T19:05:35.495Z,100307.94
2022-08-29T19:08:04.046Z,100313.91
2022-08-29T19:10:33.351Z,100307.06
2022-08-29T19:13:01.575Z,100313.75
2022-08-29T19:15:30.748Z,100318.16
2022-08-29T19:18:00.642Z,100318.56
2022-08-29T19:20:46.758Z,100318.19
2022-08-29T19:23:16.162Z,100315.34
2022-08-29T19:25:44.934Z,100323.56
2022-08-29T19:28:13.344Z,100332.22
2022-08-29T19:30:42.050Z,100333.50
2022-08-29T19:33:12.640Z,100337.75
2022-08-29T19:35:40.958Z,100336.19
2022-08-29T19:38:10.068Z,100343.59
2022-08-29T19:40:40.171Z,100334.75
2022-08-29T19:43:13.606Z,100331.06
2022-08-29T19:45:44.559Z,100330.72
2022-08-29T19:48:15.192Z,100333.84
2022-08-29T19:50:47.336Z,100328.59
2022-08-29T19:53:24.661Z,100329.72
2022-08-29T19:55:56.275Z,100326.56
2022-08-29T19:58:31.298Z,100332.13
2022-08-29T20:01:00.333Z,100340.91
2022-08-29T20:03:30.679Z,100340.34
2022-08-29T20:05:59.644Z,100347.88
2022-08-29T20:08:29.167Z,100336.47
2022-08-29T20:10:59.749Z,100335.06
2022-08-29T20:13:31.575Z,100327.50
2022-08-29T20:16:02.445Z,100340.13
2022-08-29T20:18:31.937Z,100336.47
2022-08-29T20:21:00.244Z,100337.31
2022-08-29T20:23:30.234Z,100343.28
2022-08-29T20:25:59.959Z,100343.69
2022-08-29T20:28:28.666Z,100334.72
2022-08-29T20:30:57.349Z,100336.72
2022-08-29T20:33:25.960Z,100337.41
2022-08-29T20:36:13.138Z,100339.38
2022-08-29T20:38:41.428Z,100341.31
2022-08-29T20:41:09.602Z,100342.31
2022-08-29T20:43:39.258Z,100340.13
2022-08-29T20:46:08.594Z,100338.66
2022-08-29T20:48:37.924Z,100343.44
2022-08-29T20:51:10.897Z,100343.72
2022-08-29T20:53:40.583Z,100339.72
2022-08-29T20:56:09.562Z,100339.25
2022-08-29T20:58:37.720Z,100342.22
2022-08-29T21:01:06.311Z,100344.63
2022-08-29T21:03:52.730Z,100345.19
2022-08-29T21:06:22.663Z,100334.53
2022-08-29T21:08:51.260Z,100336.38
2022-08-29T21:11:20.806Z,100333.81
2022-08-29T21:13:53.168Z,100331.25
2022-08-29T21:16:22.039Z,100338.59
2022-08-29T21:18:52.369Z,100340.28
2022-08-29T21:21:24.834Z,100336.38
2022-08-29T21:23:53.577Z,100328.16
2022-08-29T21:26:21.714Z,100330.00
2022-08-29T21:28:49.958Z,100336.03
2022-08-29T21:31:19.484Z,100335.19
2022-08-29T21:33:47.805Z,100345.09
2022-08-29T21:36:18.828Z,100336.84
2022-08-29T21:38:52.346Z,100337.47
2022-08-29T21:41:20.540Z,100338.72
2022-08-29T21:43:48.896Z,100343.13
2022-08-29T21:46:18.764Z,100343.13
2022-08-29T21:48:47.313Z,100344.34
2022-08-29T21:51:18.682Z,100346.19
2022-08-29T21:53:49.608Z,100339.94
2022-08-29T21:56:18.351Z,100343.63
2022-08-29T21:58:49.644Z,100347.84
2022-08-29T22:01:18.118Z,100340.84
2022-08-29T22:03:50.083Z,100348.22
2022-08-29T22:06:19.143Z,100349.28
2022-08-29T22:08:49.136Z,100344.31
2022-08-29T22:11:22.446Z,100343.44
2022-08-29T22:13:52.455Z,100350.81
2022-08-29T22:16:28.744Z,100346.78
2022-08-29T22:19:02.768Z,100351.91
2022-08-29T22:21:33.117Z,100348.38
2022-08-29T22:24:02.993Z,100357.56
2022-08-29T22:26:31.217Z,100352.19
2022-08-29T22:28:59.360Z,100348.00
2022-08-29T22:31:28.035Z,100351.31
2022-08-29T22:33:56.194Z,100355.97
2022-08-29T22:36:24.750Z,100352.16
2022-08-29T22:38:55.392Z,100364.88
2022-08-29T22:41:26.305Z,100367.22
2022-08-29T22:44:31.683Z,100363.47
2022-08-29T22:46:44.800Z,100378.13
2022-08-29T22:49:13.500Z,100370.81
2022-08-29T22:51:41.682Z,100371.53
2022-08-29T22:54:26.938Z,100377.41
2022-08-29T22:56:56.542Z,100376.41
2022-08-29T22:59:24.712Z,100381.19
2022-08-29T23:01:52.961Z,100385.34
2022-08-29T23:04:24.172Z,100386.59
2022-08-29T23:06:52.258Z,100390.53
2022-08-29T23:09:20.448Z,100386.97
2022-08-29T23:11:48.874Z,100390.88
2022-08-29T23:14:20.609Z,100378.13
2022-08-29T23:16:49.560Z,100392.56
2022-08-29T23:19:18.110Z,100391.59
2022-08-29T23:21:46.293Z,100398.69
2022-08-29T23:24:14.645Z,100388.69
2022-08-29T23:26:43.337Z,100385.59
2022-08-29T23:29:11.626Z,100398.81
2022-08-29T23:31:41.468Z,100398.06
2022-08-29T23:34:09.712Z,100404.56
2022-08-29T23:36:37.874Z,100387.91
2022-08-29T23:39:06.553Z,100396.38
2022-08-29T23:41:35.398Z,100395.06
2022-08-29T23:44:04.046Z,100399.81
2022-08-29T23:46:32.243Z,100398.34
2022-08-29T23:49:01.807Z,100396.66
2022-08-29T23:51:30.002Z,100400.31
2022-08-29T23:53:58.372Z,100395.78
2022-08-29T23:56:27.004Z,100400.19
2022-08-29T23:58:56.710Z,100392.50
